createdAt,value
2018-03-28T00:00:10.462Z,100431.51
2018-03-28T00:02:39.556Z,100431.95
2018-03-28T00:05:07.919Z,100427.16
2018-03-28T00:07:36.650Z,100421.13
2018-03-28T00:10:05.776Z,100416.02
2018-03-28T00:12:34.876Z,100408.59
2018-03-28T00:15:03.213Z,100410.29
2018-03-28T00:17:32.338Z,100408.88
2018-03-28T00:20:01.086Z,100413.65
2018-03-28T00:22:29.441Z,100404.48
2018-03-28T00:24:57.748Z,100405.40
2018-03-28T00:27:26.496Z,100402.80
2018-03-28T00:29:54.825Z,100396.34
2018-03-28T00:32:23.934Z,100396.83
2018-03-28T00:34:52.252Z,100393.84
2018-03-28T00:37:20.601Z,100393.41
2018-03-28T00:39:48.965Z,100385.90
2018-03-28T00:42:17.288Z,100382.25
2018-03-28T00:44:45.648Z,100386.93
2018-03-28T00:47:14.382Z,100382.46
2018-03-28T00:49:42.708Z,100369.16
2018-03-28T00:52:11.077Z,100373.80
2018-03-28T00:54:39.461Z,100360.69
2018-03-28T00:57:08.233Z,100360.22
2018-03-28T00:59:36.581Z,100352.37
2018-03-28T01:02:05.703Z,100353.58
2018-03-28T01:04:34.029Z,100350.50
2018-03-28T01:07:02.380Z,100350.94
2018-03-28T01:09:31.478Z,100346.15
2018-03-28T01:12:00.607Z,100346.22
2018-03-28T01:14:28.927Z,100341.38
2018-03-28T01:16:57.681Z,100337.90
2018-03-28T01:19:26.383Z,100337.91
2018-03-28T01:21:55.491Z,100336.97
2018-03-28T01:24:24.209Z,100337.33
2018-03-28T01:26:52.598Z,100338.59
2018-03-28T01:29:20.953Z,100336.02
2018-03-28T01:31:49.273Z,100333.80
2018-03-28T01:34:17.629Z,100330.81
2018-03-28T01:36:46.345Z,100317.93
2018-03-28T01:39:14.705Z,100317.55
2018-03-28T01:41:43.036Z,100322.39
2018-03-28T01:44:11.408Z,100319.36
2018-03-28T01:46:39.731Z,100315.91
2018-03-28T01:49:08.060Z,100309.34
2018-03-28T01:51:36.410Z,100307.16
2018-03-28T01:54:05.177Z,100302.34
2018-03-28T01:56:33.897Z,100300.66
2018-03-28T01:59:02.273Z,100300.70
2018-03-28T02:01:31.400Z,100294.69
2018-03-28T02:03:59.757Z,100292.10
2018-03-28T02:06:28.477Z,100288.65
2018-03-28T02:08:57.591Z,100293.02
2018-03-28T02:11:25.938Z,100287.36
2018-03-28T02:13:54.289Z,100290.02
2018-03-28T02:16:23.371Z,100284.03
2018-03-28T02:18:52.486Z,100273.64
2018-03-28T02:21:20.852Z,100272.78
2018-03-28T02:23:49.927Z,100279.34
2018-03-28T02:26:18.667Z,100271.56
2018-03-28T02:28:46.983Z,100266.81
2018-03-28T02:31:15.733Z,100267.41
2018-03-28T02:33:44.489Z,100265.78
2018-03-28T02:36:12.819Z,100258.08
2018-03-28T02:38:41.155Z,100245.09
2018-03-28T02:41:09.880Z,100245.86
2018-03-28T02:43:38.228Z,100246.20
2018-03-28T02:46:06.945Z,100239.64
2018-03-28T02:48:35.736Z,100236.19
2018-03-28T02:51:04.038Z,100240.66
2018-03-28T02:53:32.793Z,100239.11
2018-03-28T02:56:01.169Z,100228.21
2018-03-28T02:58:29.599Z,100235.28
2018-03-28T03:00:58.678Z,100225.72
2018-03-28T03:03:27.820Z,100222.68
2018-03-28T03:05:56.136Z,100225.70
2018-03-28T03:08:24.453Z,100221.29
2018-03-28T03:10:53.604Z,100222.54
2018-03-28T03:13:21.930Z,100216.87
2018-03-28T03:15:50.287Z,100215.09
2018-03-28T03:18:19.397Z,100216.30
2018-03-28T03:20:47.738Z,100219.38
2018-03-28T03:23:16.148Z,100212.91
2018-03-28T03:25:44.568Z,100207.72
2018-03-28T03:28:12.908Z,100203.34
2018-03-28T03:30:42.027Z,100206.03
2018-03-28T03:33:10.322Z,100212.16
2018-03-28T03:35:39.452Z,100218.27
2018-03-28T03:38:07.784Z,100207.31
2018-03-28T03:40:36.115Z,100206.84
2018-03-28T03:43:05.230Z,100206.90
2018-03-28T03:45:33.956Z,100203.84
2018-03-28T03:48:02.678Z,100205.16
2018-03-28T03:50:31.781Z,100212.58
2018-03-28T03:53:01.276Z,100214.72
2018-03-28T03:55:29.599Z,100213.44
2018-03-28T03:57:57.964Z,100219.14
2018-03-28T04:00:26.284Z,100221.25
2018-03-28T04:02:54.616Z,100221.67
2018-03-28T04:05:25.350Z,100211.23
2018-03-28T04:07:53.672Z,100210.92
2018-03-28T04:10:22.027Z,100209.66
2018-03-28T04:12:50.356Z,100210.03
2018-03-28T04:15:19.504Z,100214.77
2018-03-28T04:17:48.959Z,100208.62
2018-03-28T04:20:18.083Z,100205.16
2018-03-28T04:22:46.396Z,100206.10
2018-03-28T04:25:15.159Z,100212.55
2018-03-28T04:27:44.276Z,100216.37
2018-03-28T04:30:12.636Z,100212.97
2018-03-28T04:32:41.334Z,100207.80
2018-03-28T04:35:09.704Z,100204.78
2018-03-28T04:37:38.067Z,100210.02
2018-03-28T04:40:06.783Z,100204.73
2018-03-28T04:42:35.098Z,100204.23
2018-03-28T04:45:03.854Z,100204.20
2018-03-28T04:47:32.172Z,100201.25
2018-03-28T04:50:01.263Z,100199.47
2018-03-28T04:52:30.399Z,100193.34
2018-03-28T04:54:58.754Z,100197.69
2018-03-28T04:57:27.062Z,100198.98
2018-03-28T04:59:55.419Z,100198.11
2018-03-28T05:02:23.763Z,100193.39
2018-03-28T05:04:52.874Z,100189.06
2018-03-28T05:07:21.184Z,100189.86
2018-03-28T05:09:49.542Z,100185.10
2018-03-28T05:12:17.838Z,100177.77
2018-03-28T05:14:46.191Z,100180.45
2018-03-28T05:17:14.530Z,100181.72
2018-03-28T05:19:42.883Z,100176.52
2018-03-28T05:22:11.207Z,100180.45
2018-03-28T05:24:40.335Z,100178.28
2018-03-28T05:27:09.059Z,100174.36
2018-03-28T05:29:37.414Z,100167.88
2018-03-28T05:32:05.743Z,100168.28
2018-03-28T05:34:34.855Z,100162.55
2018-03-28T05:37:03.175Z,100159.53
2018-03-28T05:39:31.517Z,100164.71
2018-03-28T05:41:59.849Z,100160.34
2018-03-28T05:44:28.196Z,100165.53
2018-03-28T05:46:57.290Z,100166.00
2018-03-28T05:49:25.658Z,100170.00
2018-03-28T05:51:53.967Z,100172.17
2018-03-28T05:54:22.691Z,100168.63
2018-03-28T05:56:51.446Z,100168.71
2018-03-28T05:59:19.802Z,100168.33
2018-03-28T06:01:48.369Z,100169.16
2018-03-28T06:04:16.722Z,100166.59
2018-03-28T06:06:45.045Z,100178.83
2018-03-28T06:09:13.414Z,100178.77
2018-03-28T06:11:41.730Z,100176.11
2018-03-28T06:14:10.462Z,100176.95
2018-03-28T06:16:39.242Z,100173.91
2018-03-28T06:19:07.575Z,100172.63
2018-03-28T06:21:36.325Z,100177.36
2018-03-28T06:24:04.655Z,100173.89
2018-03-28T06:26:33.812Z,100178.32
2018-03-28T06:29:02.173Z,100174.91
2018-03-28T06:31:30.566Z,100166.15
2018-03-28T06:33:59.325Z,100168.33
2018-03-28T06:36:27.681Z,100165.80
2018-03-28T06:38:56.068Z,100159.25
2018-03-28T06:41:24.384Z,100159.59
2018-03-28T06:43:52.728Z,100152.63
2018-03-28T06:46:21.126Z,100148.81
2018-03-28T06:48:49.494Z,100145.20
2018-03-28T06:51:17.858Z,100143.50
2018-03-28T06:53:46.294Z,100146.09
2018-03-28T06:56:15.066Z,100138.70
2018-03-28T06:58:43.429Z,100130.49
2018-03-28T07:01:12.206Z,100121.47
2018-03-28T07:03:40.562Z,100133.26
2018-03-28T07:06:09.291Z,100125.51
2018-03-28T07:08:37.658Z,100127.60
2018-03-28T07:11:06.090Z,100123.58
2018-03-28T07:13:35.206Z,100117.96
2018-03-28T07:16:03.990Z,100121.93
2018-03-28T07:18:32.394Z,100120.55
2018-03-28T07:21:00.732Z,100119.19
2018-03-28T07:23:29.100Z,100114.44
2018-03-28T07:25:58.218Z,100108.39
2018-03-28T07:28:26.556Z,100106.16
2018-03-28T07:30:54.948Z,100098.41
2018-03-28T07:33:24.074Z,100093.27
2018-03-28T07:35:52.388Z,100093.67
2018-03-28T07:38:21.510Z,100088.08
2018-03-28T07:40:50.262Z,100091.55
2018-03-28T07:43:19.006Z,100093.66
2018-03-28T07:45:47.362Z,100093.29
2018-03-28T07:48:16.097Z,100088.61
2018-03-28T07:50:44.858Z,100087.73
2018-03-28T07:53:13.178Z,100082.45
2018-03-28T07:55:41.494Z,100079.89
2018-03-28T07:58:09.845Z,100079.05
2018-03-28T08:00:38.586Z,100068.61
2018-03-28T08:03:06.942Z,100073.88
2018-03-28T08:05:36.794Z,100076.91
2018-03-28T08:08:05.148Z,100070.78
2018-03-28T08:10:34.244Z,100060.34
2018-03-28T08:13:02.609Z,100061.69
2018-03-28T08:15:31.345Z,100055.59
2018-03-28T08:17:59.712Z,100058.61
2018-03-28T08:20:28.027Z,100058.20
2018-03-28T08:22:57.156Z,100067.77
2018-03-28T08:25:25.514Z,100070.83
2018-03-28T08:27:54.621Z,100077.78
2018-03-28T08:30:23.744Z,100069.08
2018-03-28T08:32:52.111Z,100069.53
2018-03-28T08:35:21.322Z,100075.18
2018-03-28T08:37:50.045Z,100070.84
2018-03-28T08:40:18.364Z,100066.48
2018-03-28T08:42:47.529Z,100067.77
2018-03-28T08:45:15.866Z,100059.03
2018-03-28T08:47:44.181Z,100061.66
2018-03-28T08:50:12.532Z,100063.44
2018-03-28T08:52:40.885Z,100063.00
2018-03-28T08:55:09.245Z,100049.03
2018-03-28T08:57:37.961Z,100038.98
2018-03-28T09:00:06.326Z,100027.05
2018-03-28T09:02:35.067Z,100025.52
2018-03-28T09:05:03.794Z,100021.53
2018-03-28T09:07:32.170Z,100015.17
2018-03-28T09:10:01.274Z,100013.93
2018-03-28T09:12:30.777Z,100010.32
2018-03-28T09:14:59.902Z,100014.09
2018-03-28T09:17:28.290Z,100003.59
2018-03-28T09:19:56.629Z,100008.81
2018-03-28T09:22:25.027Z,100007.48
2018-03-28T09:24:53.357Z,100006.91
2018-03-28T09:27:22.437Z,100001.55
2018-03-28T09:29:50.801Z,99995.29
2018-03-28T09:32:19.894Z,99984.11
2018-03-28T09:34:48.280Z,99993.11
2018-03-28T09:37:17.387Z,99986.51
2018-03-28T09:39:45.691Z,99993.73
2018-03-28T09:42:14.152Z,99992.59
2018-03-28T09:44:43.234Z,99990.91
2018-03-28T09:47:11.717Z,99988.73
2018-03-28T09:49:40.861Z,99987.58
2018-03-28T09:52:09.241Z,99979.88
2018-03-28T09:54:37.637Z,99978.08
2018-03-28T09:57:06.021Z,99975.52
2018-03-28T09:59:35.175Z,99977.30
2018-03-28T10:02:08.987Z,99987.56
2018-03-28T10:04:42.708Z,99979.96
2018-03-28T10:07:11.493Z,99976.41
2018-03-28T10:09:39.848Z,99971.20
2018-03-28T10:12:08.257Z,99972.91
2018-03-28T10:14:36.587Z,99965.66
2018-03-28T10:17:05.709Z,99969.31
2018-03-28T10:19:34.849Z,99963.55
2018-03-28T10:22:03.631Z,99967.39
2018-03-28T10:24:32.763Z,99959.80
2018-03-28T10:27:01.506Z,99961.94
2018-03-28T10:29:29.828Z,99959.67
2018-03-28T10:31:59.073Z,99958.58
2018-03-28T10:34:27.412Z,99963.17
2018-03-28T10:36:56.501Z,99963.00
2018-03-28T10:39:25.615Z,99966.52
2018-03-28T10:41:53.970Z,99966.57
2018-03-28T10:44:22.334Z,99962.64
2018-03-28T10:46:51.249Z,99962.13
2018-03-28T10:49:20.495Z,99957.59
2018-03-28T10:51:48.860Z,99952.80
2018-03-28T10:54:17.179Z,99948.72
2018-03-28T10:56:45.532Z,99947.50
2018-03-28T10:59:15.037Z,99940.97
2018-03-28T11:01:43.363Z,99951.78
2018-03-28T11:04:12.485Z,99948.67
2018-03-28T11:06:40.871Z,99949.28
2018-03-28T11:09:10.392Z,99946.89
2018-03-28T11:11:38.748Z,99943.51
2018-03-28T11:14:07.062Z,99936.70
2018-03-28T11:16:35.827Z,99942.11
2018-03-28T11:19:04.576Z,99936.95
2018-03-28T11:21:32.937Z,99933.73
2018-03-28T11:24:01.999Z,99937.30
2018-03-28T11:26:30.322Z,99936.61
2018-03-28T11:28:58.686Z,99938.84
2018-03-28T11:31:27.809Z,99941.84
2018-03-28T11:33:56.218Z,99931.13
2018-03-28T11:36:24.592Z,99931.30
2018-03-28T11:38:53.354Z,99928.41
2018-03-28T11:41:21.752Z,99928.95
2018-03-28T11:43:50.844Z,99926.41
2018-03-28T11:46:21.194Z,99931.64
2018-03-28T11:48:49.592Z,99917.61
2018-03-28T11:51:17.985Z,99926.38
2018-03-28T11:53:46.340Z,99924.33
2018-03-28T11:56:16.230Z,99920.00
2018-03-28T11:58:44.596Z,99924.37
2018-03-28T12:01:13.030Z,99919.50
2018-03-28T12:03:41.837Z,99917.76
2018-03-28T12:06:10.604Z,99917.40
2018-03-28T12:08:40.454Z,99921.97
2018-03-28T12:11:08.828Z,99922.09
2018-03-28T12:13:37.155Z,99923.56
2018-03-28T12:16:06.360Z,99922.70
2018-03-28T12:18:34.757Z,99920.96
2018-03-28T12:21:04.583Z,99917.90
2018-03-28T12:23:32.930Z,99914.41
2018-03-28T12:26:01.668Z,99920.11
2018-03-28T12:28:31.167Z,99920.56
2018-03-28T12:30:59.511Z,99921.42
2018-03-28T12:33:29.012Z,99917.50
2018-03-28T12:35:57.383Z,99910.93
2018-03-28T12:38:26.139Z,99912.28
2018-03-28T12:40:54.503Z,99911.38
2018-03-28T12:43:22.885Z,99909.23
2018-03-28T12:45:52.017Z,99913.57
2018-03-28T12:48:21.298Z,99910.98
2018-03-28T12:50:49.619Z,99905.29
2018-03-28T12:53:18.751Z,99900.48
2018-03-28T12:55:48.181Z,99897.02
2018-03-28T12:58:16.567Z,99901.37
2018-03-28T13:00:45.311Z,99892.66
2018-03-28T13:03:14.460Z,99896.12
2018-03-28T13:06:09.163Z,99895.70
2018-03-28T13:08:38.335Z,99893.07
2018-03-28T13:11:07.118Z,99886.51
2018-03-28T13:13:35.871Z,99890.45
2018-03-28T13:16:04.234Z,99892.62
2018-03-28T13:18:32.591Z,99889.56
2018-03-28T13:21:01.717Z,99881.33
2018-03-28T13:23:30.074Z,99881.31
2018-03-28T13:25:58.419Z,99877.84
2018-03-28T13:28:26.777Z,99875.21
2018-03-28T13:30:55.555Z,99878.23
2018-03-28T13:33:23.931Z,99870.84
2018-03-28T13:35:52.255Z,99878.65
2018-03-28T13:38:21.733Z,99874.31
2018-03-28T13:40:50.083Z,99872.08
2018-03-28T13:43:18.835Z,99864.67
2018-03-28T13:45:47.184Z,99860.68
2018-03-28T13:48:15.559Z,99852.00
2018-03-28T13:50:43.891Z,99847.95
2018-03-28T13:53:12.291Z,99850.28
2018-03-28T13:55:40.667Z,99850.34
2018-03-28T13:58:09.001Z,99848.61
2018-03-28T14:00:37.334Z,99841.17
2018-03-28T14:03:05.687Z,99836.78
2018-03-28T14:05:34.055Z,99831.58
2018-03-28T14:08:02.378Z,99834.63
2018-03-28T14:10:30.741Z,99829.24
2018-03-28T14:12:59.483Z,99829.77
2018-03-28T14:15:27.857Z,99834.16
2018-03-28T14:17:56.963Z,99829.37
2018-03-28T14:20:25.325Z,99821.05
2018-03-28T14:22:54.467Z,99817.59
2018-03-28T14:25:22.809Z,99815.86
2018-03-28T14:27:51.918Z,99810.27
2018-03-28T14:30:21.142Z,99808.02
2018-03-28T14:32:49.511Z,99805.47
2018-03-28T14:35:19.375Z,99802.78
2018-03-28T14:37:48.522Z,99800.64
2018-03-28T14:40:17.988Z,99804.13
2018-03-28T14:42:54.593Z,99798.38
2018-03-28T14:45:16.620Z,99791.35
2018-03-28T14:47:45.050Z,99792.63
2018-03-28T14:50:14.190Z,99785.86
2018-03-28T14:52:42.548Z,99772.67
2018-03-28T14:55:10.931Z,99778.28
2018-03-28T14:57:39.288Z,99770.48
2018-03-28T15:00:08.468Z,99769.17
2018-03-28T15:02:37.254Z,99776.97
2018-03-28T15:05:05.643Z,99778.37
2018-03-28T15:07:34.738Z,99764.86
2018-03-28T15:10:03.927Z,99757.41
2018-03-28T15:12:33.052Z,99759.09
2018-03-28T15:15:01.761Z,99735.56
2018-03-28T15:17:30.114Z,99756.92
2018-03-28T15:19:59.223Z,99754.73
2018-03-28T15:22:27.970Z,99741.64
2018-03-28T15:24:56.786Z,99749.06
2018-03-28T15:27:25.157Z,99736.88
2018-03-28T15:29:54.279Z,99732.94
2018-03-28T15:32:22.652Z,99738.94
2018-03-28T15:34:50.977Z,99735.80
2018-03-28T15:37:19.344Z,99740.73
2018-03-28T15:39:47.730Z,99733.87
2018-03-28T15:42:16.788Z,99742.10
2018-03-28T15:44:45.124Z,99734.69
2018-03-28T15:47:14.298Z,99736.19
2018-03-28T15:49:42.644Z,99722.85
2018-03-28T15:52:11.770Z,99725.48
2018-03-28T15:54:40.146Z,99718.93
2018-03-28T15:57:08.482Z,99696.20
2018-03-28T15:59:37.598Z,99723.16
2018-03-28T16:02:06.377Z,99712.81
2018-03-28T16:04:34.734Z,99717.06
2018-03-28T16:07:03.098Z,99713.77
2018-03-28T16:09:32.194Z,99714.67
2018-03-28T16:12:00.949Z,99717.25
2018-03-28T16:14:30.455Z,99715.17
2018-03-28T16:16:58.797Z,99736.58
2018-03-28T16:19:27.138Z,99711.26
2018-03-28T16:21:55.929Z,99712.17
2018-03-28T16:24:25.020Z,99699.06
2018-03-28T16:26:54.890Z,99694.69
2018-03-28T16:29:23.240Z,99701.28
2018-03-28T16:31:51.954Z,99694.75
2018-03-28T16:34:20.284Z,99692.58
2018-03-28T16:36:49.686Z,99684.62
2018-03-28T16:39:18.481Z,99681.66
2018-03-28T16:41:46.841Z,99676.88
2018-03-28T16:44:16.038Z,99675.08
2018-03-28T16:46:45.509Z,99678.52
2018-03-28T16:49:14.330Z,99672.95
2018-03-28T16:51:43.460Z,99666.81
2018-03-28T16:54:11.812Z,99663.74
2018-03-28T16:56:42.066Z,99667.59
2018-03-28T16:59:11.821Z,99661.06
2018-03-28T17:01:42.413Z,99653.59
2018-03-28T17:04:11.880Z,99649.35
2018-03-28T17:06:40.252Z,99642.26
2018-03-28T17:09:09.228Z,99641.88
2018-03-28T17:11:40.713Z,99650.17
2018-03-28T17:14:29.085Z,99644.95
2018-03-28T17:16:58.349Z,99574.67
2018-03-28T17:19:27.268Z,99638.83
2018-03-28T17:21:56.893Z,99641.89
2018-03-28T17:24:29.941Z,99585.50
2018-03-28T17:27:04.033Z,99631.48
2018-03-28T17:29:34.201Z,99619.28
2018-03-28T17:32:02.727Z,99615.80
2018-03-28T17:34:33.038Z,99617.98
2018-03-28T17:37:03.383Z,99617.12
2018-03-28T17:39:34.325Z,99618.53
2018-03-28T17:42:04.439Z,99618.93
2018-03-28T17:44:36.111Z,99618.48
2018-03-28T17:47:06.169Z,99610.20
2018-03-28T17:49:36.713Z,99507.42
2018-03-28T17:52:05.067Z,99602.80
2018-03-28T17:54:34.233Z,99600.62
2018-03-28T17:57:03.090Z,99601.80
2018-03-28T17:59:31.883Z,99603.11
2018-03-28T18:02:02.187Z,99607.97
2018-03-28T18:04:32.482Z,99602.30
2018-03-28T18:07:01.917Z,99600.48
2018-03-28T18:09:30.341Z,99593.58
2018-03-28T18:12:00.208Z,99590.08
2018-03-28T18:14:29.385Z,99587.34
2018-03-28T18:16:57.804Z,99586.62
2018-03-28T18:19:26.926Z,99582.19
2018-03-28T18:21:56.059Z,99576.20
2018-03-28T18:24:24.793Z,99572.30
2018-03-28T18:26:53.556Z,99577.03
2018-03-28T18:29:21.893Z,99567.44
2018-03-28T18:31:50.687Z,99563.05
2018-03-28T18:34:19.444Z,99559.09
2018-03-28T18:36:47.833Z,99556.88
2018-03-28T18:39:16.936Z,99553.03
2018-03-28T18:41:45.360Z,99552.91
2018-03-28T18:44:13.690Z,99549.05
2018-03-28T18:46:42.074Z,99545.13
2018-03-28T18:49:10.420Z,99541.65
2018-03-28T18:51:40.319Z,99535.95
2018-03-28T18:54:09.054Z,99531.97
2018-03-28T18:56:37.894Z,99526.66
2018-03-28T18:59:07.040Z,99526.67
2018-03-28T19:01:36.129Z,99527.09
2018-03-28T19:04:05.761Z,99510.43
2018-03-28T19:06:35.250Z,99496.91
2018-03-28T19:09:03.667Z,99497.94
2018-03-28T19:11:32.020Z,99498.66
2018-03-28T19:14:00.336Z,99502.91
2018-03-28T19:16:29.152Z,99495.17
2018-03-28T19:18:57.884Z,99489.32
2018-03-28T19:21:26.285Z,99485.97
2018-03-28T19:23:55.020Z,99471.93
2018-03-28T19:26:24.099Z,99469.36
2018-03-28T19:28:52.503Z,99462.78
2018-03-28T19:31:22.463Z,99463.27
2018-03-28T19:33:50.914Z,99465.77
2018-03-28T19:36:20.113Z,99461.02
2018-03-28T19:38:48.493Z,99458.45
2018-03-28T19:41:17.372Z,99464.44
2018-03-28T19:43:45.717Z,99465.30
2018-03-28T19:46:14.089Z,99457.47
2018-03-28T19:48:42.530Z,99460.52
2018-03-28T19:51:10.858Z,99458.30
2018-03-28T19:53:39.245Z,99451.23
2018-03-28T19:56:08.021Z,99448.61
2018-03-28T19:58:37.074Z,99438.66
2018-03-28T20:01:05.440Z,99438.13
2018-03-28T20:03:33.788Z,99435.13
2018-03-28T20:06:02.151Z,99426.81
2018-03-28T20:08:30.960Z,99415.49
2018-03-28T20:10:59.328Z,99415.91
2018-03-28T20:13:28.464Z,99418.97
2018-03-28T20:15:57.491Z,99409.77
2018-03-28T20:18:25.848Z,99412.26
2018-03-28T20:20:54.620Z,99403.45
2018-03-28T20:23:22.959Z,99394.13
2018-03-28T20:25:51.283Z,99388.61
2018-03-28T20:28:19.712Z,99383.34
2018-03-28T20:30:48.819Z,99375.08
2018-03-28T20:33:18.140Z,99375.50
2018-03-28T20:35:46.488Z,99369.30
2018-03-28T20:38:16.223Z,99365.41
2018-03-28T20:40:44.552Z,99374.18
2018-03-28T20:43:12.956Z,99374.17
2018-03-28T20:45:41.290Z,99363.38
2018-03-28T20:48:11.000Z,99366.73
2018-03-28T20:50:40.148Z,99360.27
2018-03-28T20:53:09.257Z,99354.95
2018-03-28T20:55:37.599Z,99348.52
2018-03-28T20:58:06.356Z,99345.44
2018-03-28T21:00:36.311Z,99336.16
2018-03-28T21:03:06.274Z,99339.18
2018-03-28T21:05:34.631Z,99341.03
2018-03-28T21:08:02.944Z,99332.97
2018-03-28T21:10:32.130Z,99332.78
2018-03-28T21:13:00.476Z,99331.14
2018-03-28T21:15:29.243Z,99323.80
2018-03-28T21:17:57.970Z,99321.97
2018-03-28T21:20:26.315Z,99313.17
2018-03-28T21:22:55.068Z,99304.39
2018-03-28T21:25:23.779Z,99306.19
2018-03-28T21:27:52.137Z,99301.66
2018-03-28T21:30:20.856Z,99298.59
2018-03-28T21:32:49.194Z,99292.13
2018-03-28T21:35:18.303Z,99286.80
2018-03-28T21:37:47.400Z,99285.39
2018-03-28T21:40:15.763Z,99278.05
2018-03-28T21:42:44.093Z,99277.27
2018-03-28T21:45:12.459Z,99272.39
2018-03-28T21:47:40.774Z,99268.84
2018-03-28T21:50:09.127Z,99266.61
2018-03-28T21:52:38.196Z,99267.13
2018-03-28T21:55:06.546Z,99264.39
2018-03-28T21:57:34.879Z,99257.36
2018-03-28T22:00:03.590Z,99254.87
2018-03-28T22:02:32.732Z,99249.52
2018-03-28T22:05:01.086Z,99248.61
2018-03-28T22:07:29.485Z,99244.28
2018-03-28T22:09:58.529Z,99238.58
2018-03-28T22:12:26.883Z,99233.78
2018-03-28T22:14:55.233Z,99231.89
2018-03-28T22:17:23.574Z,99230.64
2018-03-28T22:19:52.650Z,99222.66
2018-03-28T22:22:21.033Z,99212.75
2018-03-28T22:24:49.359Z,99209.48
2018-03-28T22:27:17.715Z,99202.74
2018-03-28T22:29:46.795Z,99197.11
2018-03-28T22:32:15.930Z,99199.51
2018-03-28T22:34:44.258Z,99191.61
2018-03-28T22:37:12.564Z,99184.16
2018-03-28T22:39:40.916Z,99181.43
2018-03-28T22:42:10.055Z,99177.08
2018-03-28T22:44:38.368Z,99176.27
2018-03-28T22:47:06.681Z,99178.48
2018-03-28T22:49:35.786Z,99173.55
2018-03-28T22:52:04.102Z,99169.00
2018-03-28T22:54:32.442Z,99167.27
2018-03-28T22:57:00.795Z,99168.08
2018-03-28T22:59:29.505Z,99170.58
2018-03-28T23:01:58.695Z,99165.25
2018-03-28T23:04:27.826Z,99160.50
2018-03-28T23:06:56.135Z,99158.53
2018-03-28T23:09:24.461Z,99143.83
2018-03-28T23:11:52.839Z,99140.41
2018-03-28T23:14:21.154Z,99140.35
2018-03-28T23:16:49.477Z,99135.28
2018-03-28T23:19:18.597Z,99130.89
2018-03-28T23:21:46.942Z,99127.22
2018-03-28T23:24:16.034Z,99124.52
2018-03-28T23:26:45.154Z,99124.59
2018-03-28T23:29:13.471Z,99115.34
2018-03-28T23:31:42.808Z,99108.27
2018-03-28T23:34:11.159Z,99103.09
2018-03-28T23:36:39.475Z,99104.52
2018-03-28T23:39:07.828Z,99096.23
2018-03-28T23:41:36.909Z,99105.41
2018-03-28T23:44:05.273Z,99098.28
2018-03-28T23:46:33.584Z,99101.28
2018-03-28T23:49:02.685Z,99095.09
2018-03-28T23:51:31.415Z,99089.91
2018-03-28T23:53:59.806Z,99094.72
2018-03-28T23:56:28.124Z,99092.91
2018-03-28T23:58:56.874Z,99101.05
